Time;durP1;ratioP1;P1;durP2;ratioP2;P2;SDS_P1;SDS_P2;PMS_P1;PMS_P2;Temp;Humidity;BMP_temperature;BMP_pressure;BME280_temperature;BME280_humidity;BME280_pressure;Samples;Min_cycle;Max_cycle;Signal;HPM_P1;HPM_P2
2023/03/04 00:01:47;;;;;;;16.67;2.20;;;;;;;3.66;99.01;102543.78;5011220;28;20058;-85
2023/03/04 00:04:16;;;;;;;17.77;2.60;;;;;;;3.67;98.73;102541.97;5023195;28;20022;-84
2023/03/04 00:06:41;;;;;;;23.75;2.28;;;;;;;3.69;98.24;102540.00;5017869;28;20350;-85
2023/03/04 00:09:07;;;;;;;19.87;2.10;;;;;;;3.69;98.59;102543.47;5019813;28;20030;-85
2023/03/04 00:11:32;;;;;;;21.30;2.50;;;;;;;3.70;98.56;102541.66;5018119;28;20029;-86
2023/03/04 00:13:58;;;;;;;13.50;1.80;;;;;;;3.70;98.46;102537.16;5016778;28;20033;-86
2023/03/04 00:16:26;;;;;;;14.87;2.03;;;;;;;3.70;98.65;102547.75;5016284;28;20459;-86
2023/03/04 00:18:52;;;;;;;18.88;2.13;;;;;;;3.69;98.75;102542.66;5018054;28;20028;-86
2023/03/04 00:21:17;;;;;;;17.30;1.80;;;;;;;3.70;99.00;102541.66;5004221;28;20102;-87
2023/03/04 00:23:43;;;;;;;22.03;2.03;;;;;;;3.68;99.22;102533.84;5013007;28;20571;-85
2023/03/04 00:26:08;;;;;;;12.63;1.70;;;;;;;3.66;99.50;102524.41;5017767;28;20109;-86
2023/03/04 00:28:34;;;;;;;17.98;2.28;;;;;;;3.72;99.34;102529.88;5004814;28;20052;-86
2023/03/04 00:30:59;;;;;;;12.13;1.70;;;;;;;3.72;99.33;102524.56;5015804;28;20456;-86
2023/03/04 00:33:26;;;;;;;20.07;1.87;;;;;;;3.75;99.43;102524.22;5005311;28;20098;-86
2023/03/04 00:35:51;;;;;;;17.20;2.13;;;;;;;3.71;99.78;102528.22;4985362;28;20027;-86
2023/03/04 00:38:16;;;;;;;10.57;1.70;;;;;;;3.74;99.42;102527.88;5011179;28;20354;-87
2023/03/04 00:40:42;;;;;;;19.13;1.73;;;;;;;3.68;99.70;102525.09;5007139;28;20114;-86
2023/03/04 00:43:07;;;;;;;15.25;2.08;;;;;;;3.74;99.82;102532.38;5023377;28;20507;-86
2023/03/04 00:45:32;;;;;;;17.57;2.23;;;;;;;3.69;99.99;102524.09;5024563;28;20027;-86
2023/03/04 00:47:58;;;;;;;12.40;1.70;;;;;;;3.72;100.00;102529.88;5022725;28;20038;-86
2023/03/04 00:50:23;;;;;;;17.10;1.67;;;;;;;3.69;100.00;102524.09;5024894;28;20612;-86
2023/03/04 00:52:49;;;;;;;13.77;2.33;;;;;;;3.70;100.00;102529.22;5028576;28;20089;-85
2023/03/04 00:55:14;;;;;;;13.70;2.07;;;;;;;3.77;99.95;102526.69;5027935;28;20060;-86
2023/03/04 00:57:40;;;;;;;14.03;1.83;;;;;;;3.75;99.61;102523.38;5030465;28;20026;-88
2023/03/04 01:00:09;;;;;;;17.45;1.58;;;;;;;3.76;99.27;102525.03;5027943;28;20045;-87
2023/03/04 01:02:37;;;;;;;12.82;1.58;;;;;;;3.78;98.99;102521.25;5037635;28;20029;-87
2023/03/04 01:05:03;;;;;;;12.43;1.40;;;;;;;3.79;99.22;102522.91;5038601;28;20029;-85
2023/03/04 01:07:28;;;;;;;16.87;2.13;;;;;;;3.79;99.06;102528.19;5003777;28;20380;-86
2023/03/04 01:09:53;;;;;;;18.13;2.10;;;;;;;3.79;99.32;102533.50;5017219;28;20132;-86
2023/03/04 01:12:19;;;;;;;18.17;2.07;;;;;;;3.79;99.33;102530.00;5015459;28;20503;-86
2023/03/04 01:14:45;;;;;;;22.77;2.08;;;;;;;3.79;99.51;102536.16;5026211;28;20045;-85
2023/03/04 01:17:11;;;;;;;14.27;1.77;;;;;;;3.81;99.81;102541.28;5020938;28;20109;-86
2023/03/04 01:19:36;;;;;;;13.55;1.77;;;;;;;3.83;99.05;102530.53;5023038;28;20050;-86
2023/03/04 01:22:01;;;;;;;15.03;1.87;;;;;;;3.81;98.53;102528.03;5006108;28;20045;-85
2023/03/04 01:24:28;;;;;;;13.90;1.47;;;;;;;3.87;98.55;102526.50;5022036;28;20026;-86
2023/03/04 01:26:54;;;;;;;15.98;2.22;;;;;;;3.84;98.75;102527.69;5001751;28;20038;-86
2023/03/04 01:29:19;;;;;;;20.23;2.10;;;;;;;3.86;98.99;102531.00;5020012;28;20504;-85
2023/03/04 01:31:44;;;;;;;12.50;1.67;;;;;;;3.86;99.27;102531.00;5020362;28;20559;-85
2023/03/04 01:34:10;;;;;;;16.27;1.63;;;;;;;3.86;99.35;102524.84;5021469;28;20397;-87
2023/03/04 01:36:37;;;;;;;22.47;2.10;;;;;;;3.81;99.44;102517.41;4998382;28;20119;-86
2023/03/04 01:39:02;;;;;;;16.00;1.70;;;;;;;3.88;99.70;102522.84;5015875;28;20297;-87
2023/03/04 01:41:27;;;;;;;8.45;1.67;;;;;;;3.88;99.66;102522.84;5018133;28;20026;-86
2023/03/04 01:44:01;;;;;;;18.93;1.83;;;;;;;3.85;98.97;102521.38;5018872;28;20018;-86
2023/03/04 01:46:27;;;;;;;20.85;1.85;;;;;;;3.89;98.23;102512.09;5021228;28;20068;-85
2023/03/04 01:48:52;;;;;;;10.85;1.30;;;;;;;3.88;98.19;102520.19;5003300;28;20053;-87
2023/03/04 01:51:19;;;;;;;17.63;2.03;;;;;;;3.89;98.10;102504.13;5020638;28;20034;-86
2023/03/04 01:53:48;;;;;;;15.00;1.65;;;;;;;3.88;98.01;102496.34;5001147;28;20034;-87
2023/03/04 01:56:20;;;;;;;12.20;1.17;;;;;;;3.94;97.99;102506.25;5020772;28;20030;-86
2023/03/04 01:59:07;;;;;;;11.77;1.40;;;;;;;3.90;98.61;102494.34;5023537;28;20025;-87
2023/03/04 02:01:33;;;;;;;17.70;2.80;;;;;;;3.90;98.82;102495.19;5040184;28;20036;-86
2023/03/04 02:03:59;;;;;;;19.10;2.23;;;;;;;3.88;99.42;102494.53;5023670;28;20049;-87
2023/03/04 02:06:26;;;;;;;21.50;1.75;;;;;;;3.88;99.22;102489.22;5017484;28;20048;-86
2023/03/04 02:08:51;;;;;;;12.60;1.55;;;;;;;3.82;99.47;102478.47;5019204;28;20658;-87
2023/03/04 02:11:16;;;;;;;12.63;1.50;;;;;;;3.83;98.54;102486.25;5017989;28;20033;-86
2023/03/04 02:13:42;;;;;;;19.77;1.80;;;;;;;3.83;97.69;102474.81;5016464;28;20389;-87
2023/03/04 02:16:07;;;;;;;13.48;1.48;;;;;;;3.88;97.79;102485.72;5016992;28;20041;-87
2023/03/04 02:18:33;;;;;;;9.00;1.30;;;;;;;3.79;98.25;102472.50;5002408;28;20105;-87
2023/03/04 02:21:10;;;;;;;15.23;1.50;;;;;;;3.86;98.41;102482.41;5019739;28;20030;-86
2023/03/04 02:24:00;;;;;;;8.05;1.10;;;;;;;3.86;98.54;102471.81;5005293;28;20489;-86
2023/03/04 02:26:27;;;;;;;14.57;1.58;;;;;;;3.85;98.74;102480.75;5012691;28;20092;-86
2023/03/04 02:28:55;;;;;;;15.38;1.45;;;;;;;3.83;99.21;102480.94;5020857;28;20109;-86
2023/03/04 02:31:26;;;;;;;14.10;1.63;;;;;;;3.84;99.35;102482.59;5016808;28;20034;-86
2023/03/04 02:33:54;;;;;;;9.52;1.20;;;;;;;3.74;99.39;102469.53;4995603;28;20036;-87
2023/03/04 02:36:20;;;;;;;15.53;1.73;;;;;;;3.79;100.00;102469.88;4994481;28;20032;-86
2023/03/04 02:38:46;;;;;;;17.10;2.10;;;;;;;3.75;99.40;102463.25;5012479;28;20317;-85
2023/03/04 02:41:16;;;;;;;13.40;1.27;;;;;;;3.82;99.58;102471.31;5017817;28;20060;-86
2023/03/04 02:43:44;;;;;;;15.17;1.70;;;;;;;3.84;99.65;102471.16;5018099;28;20468;-86
2023/03/04 02:46:12;;;;;;;13.20;1.47;;;;;;;3.83;99.37;102469.53;4989652;28;20312;-84
2023/03/04 02:48:38;;;;;;;11.25;1.42;;;;;;;3.78;99.88;102449.66;5012818;28;20061;-85
2023/03/04 02:51:04;;;;;;;14.93;1.23;;;;;;;3.83;100.00;102457.06;5012689;28;20030;-86
2023/03/04 02:53:29;;;;;;;9.93;1.88;;;;;;;3.80;99.82;102457.41;5012173;28;20034;-84
2023/03/04 02:55:55;;;;;;;11.83;1.23;;;;;;;3.84;100.00;102463.19;5010823;28;20029;-85
2023/03/04 02:58:22;;;;;;;8.47;1.17;;;;;;;3.79;100.00;102453.94;5010922;28;20072;-84
2023/03/04 03:00:47;;;;;;;11.13;1.50;;;;;;;3.77;100.00;102455.94;4992066;28;20312;-84
2023/03/04 03:03:12;;;;;;;11.82;1.40;;;;;;;3.77;100.00;102453.28;5011075;28;20029;-84
2023/03/04 03:05:38;;;;;;;14.40;1.37;;;;;;;3.79;100.00;102453.94;5010332;28;20040;-84
2023/03/04 03:08:04;;;;;;;10.77;1.10;;;;;;;3.77;100.00;102447.16;5010128;28;20124;-83
2023/03/04 03:10:30;;;;;;;12.70;1.92;;;;;;;3.77;100.00;102442.69;5009359;28;20030;-83
2023/03/04 03:12:55;;;;;;;12.23;1.70;;;;;;;3.78;100.00;102451.44;5011263;28;20018;-83
2023/03/04 03:15:21;;;;;;;15.25;1.40;;;;;;;3.76;100.00;102442.84;5010923;28;20030;-83
2023/03/04 03:17:47;;;;;;;8.57;1.07;;;;;;;3.77;100.00;102453.28;5010548;28;20025;-84
2023/03/04 03:20:12;;;;;;;16.45;1.90;;;;;;;3.79;100.00;102456.59;4992643;28;20053;-83
2023/03/04 03:22:39;;;;;;;14.27;1.43;;;;;;;3.79;100.00;102448.66;5010576;28;20109;-84
2023/03/04 03:25:05;;;;;;;11.50;1.70;;;;;;;3.76;100.00;102448.13;5009479;28;20025;-83
2023/03/04 03:27:31;;;;;;;7.93;1.63;;;;;;;3.72;100.00;102433.59;5006772;28;20040;-84
2023/03/04 03:29:56;;;;;;;10.63;1.30;;;;;;;3.74;100.00;102435.06;5010382;28;20030;-83
2023/03/04 03:32:21;;;;;;;12.97;1.43;;;;;;;3.76;100.00;102446.34;5010073;28;20080;-84
2023/03/04 03:34:47;;;;;;;17.63;1.40;;;;;;;3.76;100.00;102440.19;5014943;28;20029;-83
2023/03/04 03:37:12;;;;;;;12.77;1.20;;;;;;;3.74;100.00;102443.03;5012439;28;20030;-83
2023/03/04 03:39:37;;;;;;;14.73;1.60;;;;;;;3.71;100.00;102429.28;5013280;28;20280;-83
2023/03/04 03:42:03;;;;;;;9.67;1.60;;;;;;;3.74;100.00;102443.03;5015287;28;20048;-82
2023/03/04 03:44:28;;;;;;;10.77;1.07;;;;;;;3.75;100.00;102439.38;5012857;28;20397;-83
2023/03/04 03:46:55;;;;;;;10.03;1.00;;;;;;;3.70;100.00;102436.41;5009504;28;20105;-83
2023/03/04 03:49:20;;;;;;;10.67;1.73;;;;;;;3.74;100.00;102437.72;5014717;28;20335;-84
2023/03/04 03:51:45;;;;;;;13.13;1.50;;;;;;;3.71;100.00;102438.06;5018940;28;20026;-82
2023/03/04 03:54:11;;;;;;;14.23;1.73;;;;;;;3.61;100.00;102416.25;5001291;28;20057;-83
2023/03/04 03:56:36;;;;;;;8.63;1.30;;;;;;;3.68;100.00;102433.09;5017817;28;20037;-82
2023/03/04 03:59:02;;;;;;;15.80;1.33;;;;;;;3.67;100.00;102431.44;5018540;28;20026;-82
2023/03/04 04:01:27;;;;;;;15.60;1.50;;;;;;;3.71;100.00;102431.94;5016225;28;20076;-82
2023/03/04 04:03:52;;;;;;;12.47;1.57;;;;;;;3.66;100.00;102429.78;5019931;28;20029;-83
2023/03/04 04:06:18;;;;;;;13.30;1.60;;;;;;;3.73;100.00;102443.22;5012435;28;21386;-83
2023/03/04 04:08:45;;;;;;;9.63;1.13;;;;;;;3.70;100.00;102431.09;5014919;28;20168;-83
2023/03/04 04:11:11;;;;;;;9.30;1.30;;;;;;;3.70;100.00;102432.94;5023578;28;20026;-82
2023/03/04 04:13:36;;;;;;;12.90;1.45;;;;;;;3.67;100.00;102430.63;5015460;28;20107;-83
2023/03/04 04:16:02;;;;;;;13.53;1.43;;;;;;;3.68;100.00;102425.13;5010965;28;20034;-84
2023/03/04 04:18:27;;;;;;;9.97;1.50;;;;;;;3.67;100.00;102428.78;5013143;28;20046;-83
2023/03/04 04:20:53;;;;;;;11.80;1.30;;;;;;;3.73;100.00;102435.25;5011529;28;20355;-84
2023/03/04 04:23:19;;;;;;;8.17;1.17;;;;;;;3.74;100.00;102436.91;5009211;28;20026;-84
2023/03/04 04:25:44;;;;;;;19.77;2.22;;;;;;;3.70;100.00;102439.06;5013270;28;20082;-84
2023/03/04 04:28:09;;;;;;;9.23;1.43;;;;;;;3.71;100.00;102431.94;5013920;28;20502;-84
2023/03/04 04:30:37;;;;;;;14.43;1.53;;;;;;;3.69;100.00;102437.41;5011432;28;20079;-84
2023/03/04 04:33:03;;;;;;;9.73;1.20;;;;;;;3.65;100.00;102430.81;5014130;28;20054;-84
2023/03/04 04:35:29;;;;;;;16.38;1.50;;;;;;;3.67;100.00;102435.94;5013188;28;20366;-84
2023/03/04 04:37:55;;;;;;;14.90;1.90;;;;;;;3.59;100.00;102419.03;4995811;28;20493;-83
2023/03/04 04:40:21;;;;;;;8.90;1.15;;;;;;;3.58;100.00;102424.53;5012157;28;20083;-84
2023/03/04 04:42:47;;;;;;;10.50;1.40;;;;;;;3.66;100.00;102440.38;5013371;28;20112;-83
2023/03/04 04:45:12;;;;;;;13.65;1.23;;;;;;;3.64;100.00;102445.88;5012921;28;20029;-83
2023/03/04 04:47:38;;;;;;;11.77;2.00;;;;;;;3.59;100.00;102436.78;5011025;28;20049;-84
2023/03/04 04:50:04;;;;;;;17.17;1.30;;;;;;;3.57;100.00;102436.13;5013730;28;20148;-84
2023/03/04 04:52:29;;;;;;;11.35;1.50;;;;;;;3.58;100.00;102438.59;5013017;28;20037;-83
2023/03/04 04:54:54;;;;;;;11.70;1.00;;;;;;;3.63;100.00;102451.38;5013673;28;20021;-84
2023/03/04 04:57:20;;;;;;;7.90;1.30;;;;;;;3.55;100.00;102438.97;5011105;28;20026;-84
2023/03/04 04:59:45;;;;;;;10.02;1.35;;;;;;;3.59;100.00;102444.75;5013007;28;20482;-83
2023/03/04 05:02:11;;;;;;;11.27;1.53;;;;;;;3.60;100.00;102446.41;5010672;28;20056;-84
2023/03/04 05:04:36;;;;;;;13.97;1.53;;;;;;;3.57;100.00;102441.44;4995036;28;20719;-84
2023/03/04 05:07:01;;;;;;;12.00;1.40;;;;;;;3.55;100.00;102441.63;5012864;28;20030;-83
2023/03/04 05:09:27;;;;;;;14.73;1.30;;;;;;;3.55;100.00;102435.47;5012796;28;20026;-83
2023/03/04 05:11:52;;;;;;;11.53;1.27;;;;;;;3.51;100.00;102432.34;5011457;28;20029;-84
2023/03/04 05:14:18;;;;;;;11.43;1.53;;;;;;;3.56;100.00;102447.72;5012801;28;20041;-84
2023/03/04 05:16:44;;;;;;;14.70;1.38;;;;;;;3.46;100.00;102427.56;5012962;28;20026;-84
2023/03/04 05:19:10;;;;;;;6.63;1.05;;;;;;;3.54;100.00;102444.41;5010710;28;20504;-84
2023/03/04 05:21:36;;;;;;;14.03;1.40;;;;;;;3.56;100.00;102445.88;4994695;28;20044;-83
2023/03/04 05:24:01;;;;;;;13.55;1.60;;;;;;;3.55;100.00;102438.97;5012372;28;20030;-83
2023/03/04 05:26:27;;;;;;;16.60;1.60;;;;;;;3.54;100.00;102442.63;5012345;28;20038;-84
2023/03/04 05:28:52;;;;;;;8.87;1.33;;;;;;;3.56;100.00;102439.78;4990622;28;20037;-84
2023/03/04 05:31:17;;;;;;;9.97;1.30;;;;;;;3.58;100.00;102443.09;5006671;28;20346;-84
2023/03/04 05:33:43;;;;;;;16.63;1.53;;;;;;;3.53;100.00;102437.47;5011106;28;20026;-85
2023/03/04 05:36:08;;;;;;;13.73;1.47;;;;;;;3.60;100.00;102449.06;5010341;28;20030;-85
2023/03/04 05:38:34;;;;;;;10.37;1.10;;;;;;;3.57;100.00;102447.53;5008743;28;20056;-84
2023/03/04 05:41:03;;;;;;;12.47;1.30;;;;;;;3.57;100.00;102447.53;5012592;28;20767;-85
2023/03/04 05:43:30;;;;;;;10.77;1.23;;;;;;;3.56;100.00;102448.53;5012121;28;20112;-82
2023/03/04 05:45:56;;;;;;;15.02;1.30;;;;;;;3.57;100.00;102450.19;5015957;28;20026;-86
2023/03/04 05:48:22;;;;;;;10.88;1.48;;;;;;;3.58;100.00;102451.03;5020685;28;20029;-86
2023/03/04 05:50:53;;;;;;;13.95;1.42;;;;;;;3.58;100.00;102448.38;5012121;28;20022;-86
2023/03/04 05:53:18;;;;;;;11.35;1.50;;;;;;;3.58;100.00;102448.38;5014133;28;20029;-86
2023/03/04 05:55:48;;;;;;;14.60;1.40;;;;;;;3.56;100.00;102450.38;5013430;28;20033;-86
2023/03/04 05:58:14;;;;;;;10.82;1.23;;;;;;;3.57;100.00;102455.50;5012835;28;20032;-86
2023/03/04 06:00:40;;;;;;;9.48;1.13;;;;;;;3.55;100.00;102457.53;5010874;28;20026;-86
2023/03/04 06:03:05;;;;;;;13.50;1.37;;;;;;;3.56;100.00;102456.50;5012984;28;20147;-86
2023/03/04 06:05:31;;;;;;;10.27;1.30;;;;;;;3.47;100.00;102450.41;5012529;28;20056;-86
2023/03/04 06:07:56;;;;;;;12.83;1.67;;;;;;;3.47;100.00;102455.69;5020231;28;20476;-85
2023/03/04 06:10:22;;;;;;;16.85;1.98;;;;;;;3.52;100.00;102465.81;5013070;28;20469;-85
2023/03/04 06:12:48;;;;;;;10.60;1.73;;;;;;;3.49;100.00;102466.97;5011457;28;20036;-84
2023/03/04 06:15:13;;;;;;;8.27;1.30;;;;;;;3.47;100.00;102457.53;4994629;28;20372;-86
2023/03/04 06:17:40;;;;;;;9.43;1.87;;;;;;;3.49;100.00;102464.31;4996480;28;20473;-85
2023/03/04 06:20:08;;;;;;;4.00;1.10;;;;;;;3.51;100.00;102464.16;5013756;28;20038;-85
2023/03/04 06:22:34;;;;;;;12.50;1.60;;;;;;;3.43;100.00;102445.59;5012524;28;20030;-85
2023/03/04 06:24:59;;;;;;;11.03;1.30;;;;;;;3.51;100.00;102468.63;5011357;28;20080;-85
2023/03/04 06:27:25;;;;;;;13.65;1.73;;;;;;;3.53;100.00;102464.81;5011396;28;20025;-85
2023/03/04 06:29:51;;;;;;;9.90;1.17;;;;;;;3.51;100.00;102471.25;5011120;28;20036;-85
2023/03/04 06:32:16;;;;;;;11.27;1.37;;;;;;;3.54;100.00;102468.28;5010503;28;20436;-84
2023/03/04 06:34:42;;;;;;;8.07;1.27;;;;;;;3.51;100.00;102465.97;5012081;28;20045;-83
2023/03/04 06:37:07;;;;;;;3.13;0.80;;;;;;;3.51;100.00;102480.06;5010636;28;20034;-83
2023/03/04 06:39:32;;;;;;;10.63;1.17;;;;;;;3.52;100.00;102471.13;5015807;28;20112;-84
2023/03/04 06:41:59;;;;;;;9.87;0.77;;;;;;;3.37;100.00;102447.13;5020676;28;20034;-83
2023/03/04 06:44:28;;;;;;;7.00;0.80;;;;;;;3.54;100.00;102482.38;5020141;28;20057;-82
2023/03/04 06:46:54;;;;;;;6.30;0.93;;;;;;;3.48;100.00;102460.00;5018967;28;20038;-85
2023/03/04 06:49:19;;;;;;;10.53;1.10;;;;;;;3.54;100.00;102478.88;5022172;28;20021;-85
2023/03/04 06:51:44;;;;;;;9.13;0.80;;;;;;;3.55;100.00;102480.53;4991239;28;20371;-87
2023/03/04 06:54:10;;;;;;;14.60;1.30;;;;;;;3.53;100.00;102477.22;5020825;28;20144;-85
2023/03/04 06:56:35;;;;;;;7.30;1.00;;;;;;;3.57;100.00;102481.19;5011058;28;20026;-85
2023/03/04 06:59:01;;;;;;;8.07;1.10;;;;;;;3.57;100.00;102486.50;5011220;28;20133;-85
2023/03/04 07:01:29;;;;;;;9.85;0.93;;;;;;;3.57;100.00;102489.97;5009185;28;20025;-85
2023/03/04 07:03:55;;;;;;;6.07;1.13;;;;;;;3.58;100.00;102493.47;5012274;28;20036;-85
2023/03/04 07:06:24;;;;;;;9.32;1.17;;;;;;;3.53;100.00;102482.53;4994933;28;20497;-85
2023/03/04 07:08:50;;;;;;;7.13;1.05;;;;;;;3.56;100.00;102483.00;5012487;28;20203;-85
2023/03/04 07:11:17;;;;;;;5.60;1.10;;;;;;;3.56;100.00;102477.69;5011293;28;20505;-86
2023/03/04 07:13:42;;;;;;;8.98;1.00;;;;;;;3.61;100.00;102488.63;5014242;28;20363;-86
2023/03/04 07:28:24;;;;;;;5.73;1.17;;;;;;;3.42;100.00;102444.78;4994237;28;20303;-85
2023/03/04 07:38:07;;;;;;;10.63;1.40;;;;;;;3.98;100.00;102501.44;5360225;23;20054;-84
2023/03/04 08:02:54;;;;;;;8.90;1.50;;;;;;;4.01;100.00;102470.09;5031443;23;20057;-82
2023/03/04 08:35:21;;;;;;;16.20;1.65;;;;;;;5.52;100.00;102493.47;4919508;29;20047;-83
2023/03/04 08:37:47;;;;;;;9.40;1.60;;;;;;;5.66;100.00;102499.81;4891382;29;20039;-83
2023/03/04 08:40:15;;;;;;;8.53;1.50;;;;;;;5.89;100.00;102512.19;4931498;29;20055;-83
2023/03/04 08:42:41;;;;;;;8.93;1.45;;;;;;;6.06;100.00;102532.31;4936107;29;20118;-84
2023/03/04 08:45:07;;;;;;;12.25;1.52;;;;;;;6.09;100.00;102539.09;4936189;29;20115;-83
2023/03/04 08:47:33;;;;;;;7.03;1.60;;;;;;;6.14;100.00;102528.72;4957358;28;20112;-84
2023/03/04 08:49:58;;;;;;;12.23;1.90;;;;;;;6.18;99.25;102538.00;4965791;28;20861;-83
2023/03/04 08:52:24;;;;;;;8.80;1.50;;;;;;;6.23;100.00;102529.44;4955272;28;20032;-84
2023/03/04 08:54:49;;;;;;;8.03;1.30;;;;;;;6.36;99.50;102531.44;4967585;28;20035;-83
2023/03/04 08:57:14;;;;;;;8.93;1.45;;;;;;;6.47;98.56;102532.78;4974166;28;20478;-83
2023/03/04 08:59:40;;;;;;;8.27;1.60;;;;;;;6.61;98.86;102528.41;4974119;28;20050;-83
2023/03/04 09:02:06;;;;;;;7.47;1.27;;;;;;;6.80;97.22;102537.63;4974538;28;20030;-83
2023/03/04 09:04:32;;;;;;;9.50;1.20;;;;;;;6.88;96.26;102540.16;4962756;28;20040;-84
2023/03/04 09:06:57;;;;;;;6.17;1.03;;;;;;;6.72;97.52;102540.41;4954261;28;20058;-83
2023/03/04 09:09:23;;;;;;;10.57;1.35;;;;;;;6.70;98.53;102532.63;4949040;28;20035;-84
2023/03/04 09:11:48;;;;;;;9.13;1.00;;;;;;;6.79;98.05;102523.47;4935718;29;20031;-83
2023/03/04 09:14:14;;;;;;;6.80;1.03;;;;;;;7.03;97.33;102533.94;4935595;29;20086;-83
2023/03/04 09:16:39;;;;;;;4.20;1.08;;;;;;;7.18;95.01;102533.84;4937315;29;20055;-84
2023/03/04 09:19:04;;;;;;;6.70;1.23;;;;;;;7.30;93.71;102521.66;4936153;29;20101;-85
2023/03/04 09:21:30;;;;;;;11.30;1.13;;;;;;;7.24;91.27;102523.22;4946156;29;20451;-85
2023/03/04 09:23:57;;;;;;;4.83;1.10;;;;;;;7.17;92.87;102521.53;4956733;28;20019;-86
2023/03/04 09:26:26;;;;;;;12.57;1.13;;;;;;;7.23;93.34;102526.09;4973517;28;20081;-83
2023/03/04 09:28:57;;;;;;;5.85;1.33;;;;;;;7.45;92.09;102523.38;4973709;28;20035;-83
2023/03/04 09:31:23;;;;;;;5.68;1.65;;;;;;;7.49;90.61;102520.13;4974659;28;20023;-84
2023/03/04 09:33:50;;;;;;;6.40;1.97;;;;;;;7.55;91.01;102518.53;4976194;28;20019;-83
2023/03/04 09:36:17;;;;;;;5.77;2.17;;;;;;;7.51;90.63;102512.75;4970003;28;20381;-83
2023/03/04 09:38:44;;;;;;;4.68;1.70;;;;;;;7.48;90.60;102512.34;4950744;28;20046;-85
2023/03/04 09:41:20;;;;;;;5.43;1.70;;;;;;;7.41;90.18;102506.94;4972871;28;20063;-85
2023/03/04 09:43:48;;;;;;;6.25;1.30;;;;;;;7.46;90.78;102501.84;4944873;29;20046;-85
2023/03/04 09:46:21;;;;;;;6.70;2.00;;;;;;;7.49;89.99;102490.78;4987408;23;21294;-85
2023/03/04 09:48:53;;;;;;;5.25;1.90;;;;;;;7.67;87.29;102470.78;5009769;28;20130;-84
2023/03/04 09:51:49;;;;;;;4.82;1.30;;;;;;;8.11;86.14;102512.25;5007751;28;20037;-85
2023/03/04 09:54:20;;;;;;;8.50;2.87;;;;;;;7.94;84.96;102500.25;5003331;28;20448;-85
2023/03/04 09:57:02;;;;;;;3.83;1.17;;;;;;;7.61;84.50;102467.06;4996142;28;20293;-84
2023/03/04 09:59:42;;;;;;;7.75;1.73;;;;;;;7.79;86.32;102508.41;4976603;28;20030;-85
2023/03/04 10:03:08;;;;;;;4.15;1.33;;;;;;;7.60;87.27;102510.75;4995616;28;20057;-84
2023/03/04 10:05:47;;;;;;;4.53;1.00;;;;;;;7.28;88.25;102465.84;4974222;28;20054;-85
2023/03/04 10:08:59;;;;;;;6.38;1.13;;;;;;;7.65;87.93;102513.66;4992966;28;20031;-85
2023/03/04 10:12:12;;;;;;;4.70;1.77;;;;;;;7.50;88.61;102520.94;4960361;28;20441;-83
2023/03/04 10:15:19;;;;;;;5.03;1.40;;;;;;;7.11;89.63;102467.16;4973367;28;20025;-83
2023/03/04 10:18:06;;;;;;;4.00;1.48;;;;;;;7.37;89.43;102490.50;4973745;28;20070;-84
2023/03/04 10:21:20;;;;;;;;;;;;;;;;;;;;;
2023/03/04 10:24:30;;;;;;;5.70;1.27;;;;;;;7.74;88.23;102495.66;4913356;29;20292;-84
2023/03/04 10:27:12;;;;;;;5.78;1.95;;;;;;;8.04;87.63;102508.72;4978715;23;20045;-84
2023/03/04 10:30:02;;;;;;;6.55;2.10;;;;;;;8.39;86.16;102503.28;5016169;28;20080;-84
2023/03/04 10:33:08;;;;;;;5.82;2.20;;;;;;;8.67;85.09;102505.03;5013869;28;20496;-84
2023/03/04 10:35:43;;;;;;;4.72;2.30;;;;;;;8.86;84.56;102507.88;5013910;28;20481;-84
2023/03/04 10:38:24;;;;;;;5.70;1.80;;;;;;;8.72;81.36;102453.63;4993501;28;20038;-84
2023/03/04 10:40:59;;;;;;;3.75;1.00;;;;;;;8.75;81.34;102463.91;4999526;28;20469;-84
2023/03/04 10:44:08;;;;;;;2.47;1.02;;;;;;;8.57;81.54;102484.03;5113841;27;20427;-83
2023/03/04 10:46:54;;;;;;;2.78;1.13;;;;;;;8.14;83.08;102478.97;5101660;28;20048;-83
2023/03/04 10:49:20;;;;;;;4.00;1.00;;;;;;;7.94;84.70;102484.25;5091716;28;20020;-82
2023/03/04 10:52:05;;;;;;;5.77;1.33;;;;;;;7.79;84.96;102493.19;5094409;28;20355;-84
2023/03/04 10:54:39;;;;;;;3.83;1.17;;;;;;;7.56;87.33;102497.00;5090556;28;20026;-83
2023/03/04 10:57:22;;;;;;;7.03;1.35;;;;;;;7.45;88.56;102484.19;5077668;28;20036;-84
2023/03/04 10:59:53;;;;;;;5.80;1.17;;;;;;;7.45;88.84;102491.38;5087940;28;20107;-84
2023/03/04 11:02:22;;;;;;;5.10;1.48;;;;;;;7.29;89.17;102493.34;5089066;28;20036;-84
2023/03/04 11:05:10;;;;;;;4.95;1.25;;;;;;;7.10;90.68;102490.34;5089609;28;20457;-85
2023/03/04 11:07:40;;;;;;;3.05;1.70;;;;;;;7.02;91.75;102493.13;5089182;28;20463;-85
2023/03/04 11:10:10;;;;;;;2.33;0.90;;;;;;;6.99;92.88;102482.84;5087265;28;20634;-86
2023/03/04 11:12:36;;;;;;;3.93;0.83;;;;;;;6.91;93.61;102485.66;5089490;28;20328;-84
2023/03/04 11:15:02;;;;;;;6.43;0.98;;;;;;;6.92;94.50;102482.78;5092791;28;20020;-86
2023/03/04 11:17:40;;;;;;;4.15;1.08;;;;;;;6.92;95.09;102474.00;5092473;28;20229;-84
2023/03/04 11:20:28;;;;;;;6.37;1.10;;;;;;;6.94;94.98;102478.09;5092371;28;20032;-85
2023/03/04 11:22:56;;;;;;;6.00;1.10;;;;;;;6.90;95.36;102468.03;5093776;28;20386;-85
2023/03/04 11:25:28;;;;;;;3.45;1.30;;;;;;;6.97;95.44;102474.22;5092785;28;20024;-84
2023/03/04 11:31:54;;;;;;;6.13;0.90;;;;;;;7.38;95.17;102464.66;5064345;28;20025;-87
2023/03/04 11:35:00;;;;;;;5.75;1.02;;;;;;;7.78;94.05;102459.53;5052170;28;20029;-86
2023/03/04 11:38:16;;;;;;;2.45;1.10;;;;;;;8.06;93.04;102449.75;5083736;28;20028;-84
2023/03/04 12:07:05;;;;;;;3.88;1.58;;;;;;;8.58;92.82;102413.50;5159650;22;20075;-85
2023/03/04 12:16:30;;;;;;;2.13;1.40;;;;;;;9.25;87.45;102404.59;5018246;28;20297;-85
2023/03/04 12:19:33;;;;;;;3.15;1.60;;;;;;;9.01;87.85;102406.09;5028581;28;20040;-86
2023/03/04 12:31:24;;;;;;;2.08;1.42;;;;;;;9.69;87.10;102384.25;5654823;22;20060;-87
2023/03/04 12:34:06;;;;;;;3.17;1.40;;;;;;;9.66;85.88;102378.53;5078021;28;20024;-87
2023/03/04 12:37:06;;;;;;;1.40;1.13;;;;;;;9.39;85.14;102378.63;5090099;28;20624;-86
2023/03/04 12:40:14;;;;;;;1.37;1.27;;;;;;;8.88;87.14;102329.41;5071101;28;20629;-87
2023/03/04 12:43:08;;;;;;;1.30;1.10;;;;;;;9.14;86.78;102368.63;5039274;28;20806;-85
2023/03/04 12:45:56;;;;;;;5.20;1.20;;;;;;;9.12;87.06;102368.03;5074318;28;20499;-88
2023/03/04 12:48:39;;;;;;;1.95;1.10;;;;;;;9.09;87.50;102352.41;5104575;28;20058;-86
2023/03/04 12:51:13;;;;;;;3.05;1.20;;;;;;;8.99;87.07;102358.19;5087752;28;20387;-86
2023/03/04 12:53:48;;;;;;;3.70;1.38;;;;;;;8.95;87.36;102354.28;5096592;28;20028;-85
2023/03/04 12:56:42;;;;;;;2.53;1.30;;;;;;;8.87;87.84;102351.81;5104950;28;20050;-86
2023/03/04 12:59:14;;;;;;;3.00;1.63;;;;;;;8.71;87.80;102351.22;5055969;28;20082;-86
2023/03/04 13:02:33;;;;;;;3.88;1.52;;;;;;;8.70;88.64;102348.78;5063791;28;20037;-86
2023/03/04 13:05:32;;;;;;;2.33;1.50;;;;;;;8.58;89.18;102351.25;5011014;28;20499;-86
2023/03/04 13:08:15;;;;;;;3.37;2.00;;;;;;;8.61;88.59;102346.31;5087970;28;20986;-86
2023/03/04 13:10:40;;;;;;;4.05;1.80;;;;;;;8.67;88.41;102347.34;5071269;28;20347;-86
2023/03/04 13:13:31;;;;;;;3.88;1.98;;;;;;;8.63;89.54;102349.59;5073608;28;20115;-87
2023/03/04 13:46:17;;;;;;;4.55;2.28;;;;;;;6.35;100.00;102327.44;5039905;28;20636;-84
2023/03/04 13:48:45;;;;;;;4.90;2.40;;;;;;;6.29;100.00;102320.19;5087468;27;20035;-84
2023/03/04 13:51:17;;;;;;;2.58;1.70;;;;;;;6.16;100.00;102324.41;5104100;28;20032;-85
2023/03/04 13:54:13;;;;;;;2.65;1.40;;;;;;;6.11;100.00;102315.34;5111171;28;20016;-84
2023/03/04 13:57:15;;;;;;;4.65;1.40;;;;;;;6.12;100.00;102317.81;5082661;28;20475;-85
2023/03/04 13:59:48;;;;;;;2.75;1.20;;;;;;;6.09;100.00;102309.41;5085208;28;20085;-84
2023/03/04 14:02:21;;;;;;;2.67;1.25;;;;;;;6.20;100.00;102314.19;5091848;28;20060;-84
2023/03/04 14:04:58;;;;;;;5.32;1.00;;;;;;;6.21;100.00;102308.66;5111226;27;20042;-83
2023/03/04 14:07:36;;;;;;;1.07;0.83;;;;;;;6.29;100.00;102304.22;5122044;27;20030;-84
2023/03/04 14:10:23;;;;;;;4.83;1.00;;;;;;;6.56;100.00;102297.25;5112341;28;20322;-84
2023/03/04 14:12:55;;;;;;;3.50;1.13;;;;;;;6.87;100.00;102297.84;5099002;28;20031;-84